sensor_id;sensor_type;location;lat;lon;timestamp;pressure;altitude;pressure_sealevel;temperature;humidity
51315;BME280;65787;59.922;10.742;2022-12-07T00:00:16;100651.88;;;-3.68;84.69
51315;BME280;65787;59.922;10.742;2022-12-07T00:02:42;100654.41;;;-3.67;84.89
51315;BME280;65787;59.922;10.742;2022-12-07T00:05:07;100645.81;;;-3.69;84.37
51315;BME280;65787;59.922;10.742;2022-12-07T00:07:32;100639.81;;;-3.71;84.50
51315;BME280;65787;59.922;10.742;2022-12-07T00:09:58;100646.09;;;-3.74;85.01
51315;BME280;65787;59.922;10.742;2022-12-07T00:12:25;100647.31;;;-3.79;84.25
51315;BME280;65787;59.922;10.742;2022-12-07T00:14:53;100642.38;;;-3.84;84.05
51315;BME280;65787;59.922;10.742;2022-12-07T00:17:18;100638.13;;;-3.86;82.96
51315;BME280;65787;59.922;10.742;2022-12-07T00:19:43;100638.44;;;-3.91;82.90
51315;BME280;65787;59.922;10.742;2022-12-07T00:22:09;100644.72;;;-3.94;82.53
51315;BME280;65787;59.922;10.742;2022-12-07T00:24:40;100641.72;;;-4.02;82.29
51315;BME280;65787;59.922;10.742;2022-12-07T00:27:05;100646.63;;;-4.10;82.70
51315;BME280;65787;59.922;10.742;2022-12-07T00:29:30;100641.84;;;-4.18;82.70
51315;BME280;65787;59.922;10.742;2022-12-07T00:31:56;100640.63;;;-4.26;83.12
51315;BME280;65787;59.922;10.742;2022-12-07T00:34:21;100636.69;;;-4.34;83.01
51315;BME280;65787;59.922;10.742;2022-12-07T00:36:47;100636.59;;;-4.32;82.50
51315;BME280;65787;59.922;10.742;2022-12-07T00:39:12;100633.03;;;-4.31;81.88
51315;BME280;65787;59.922;10.742;2022-12-07T00:41:38;100635.66;;;-4.31;81.92
51315;BME280;65787;59.922;10.742;2022-12-07T00:44:03;100636.59;;;-4.32;80.92
51315;BME280;65787;59.922;10.742;2022-12-07T00:46:29;100638.84;;;-4.40;80.49
51315;BME280;65787;59.922;10.742;2022-12-07T00:48:55;100642.41;;;-4.56;79.83
51315;BME280;65787;59.922;10.742;2022-12-07T00:51:21;100645.84;;;-4.70;81.33
51315;BME280;65787;59.922;10.742;2022-12-07T00:53:47;100649.94;;;-4.80;82.21
51315;BME280;65787;59.922;10.742;2022-12-07T00:56:14;100645.97;;;-4.87;82.24
51315;BME280;65787;59.922;10.742;2022-12-07T00:58:39;100644.66;;;-4.94;82.81
51315;BME280;65787;59.922;10.742;2022-12-07T01:01:05;100640.84;;;-4.89;82.39
51315;BME280;65787;59.922;10.742;2022-12-07T01:03:31;100641.03;;;-4.92;81.84
51315;BME280;65787;59.922;10.742;2022-12-07T01:05:57;100637.66;;;-4.94;81.53
51315;BME280;65787;59.922;10.742;2022-12-07T01:08:22;100643.16;;;-4.98;80.88
51315;BME280;65787;59.922;10.742;2022-12-07T01:10:48;100644.44;;;-5.06;80.30
51315;BME280;65787;59.922;10.742;2022-12-07T01:13:14;100637.53;;;-5.07;80.20
51315;BME280;65787;59.922;10.742;2022-12-07T01:15:42;100634.59;;;-5.16;79.43
51315;BME280;65787;59.922;10.742;2022-12-07T01:18:08;100639.66;;;-5.13;80.02
51315;BME280;65787;59.922;10.742;2022-12-07T01:20:33;100636.19;;;-5.14;79.66
51315;BME280;65787;59.922;10.742;2022-12-07T01:22:58;100637.13;;;-5.15;79.47
51315;BME280;65787;59.922;10.742;2022-12-07T01:25:24;100636.06;;;-5.27;79.03
51315;BME280;65787;59.922;10.742;2022-12-07T01:27:50;100646.28;;;-5.38;79.65
51315;BME280;65787;59.922;10.742;2022-12-07T01:30:15;100644.69;;;-5.40;79.97
51315;BME280;65787;59.922;10.742;2022-12-07T01:32:41;100643.00;;;-5.41;79.33
51315;BME280;65787;59.922;10.742;2022-12-07T01:35:06;100643.97;;;-5.58;80.22
51315;BME280;65787;59.922;10.742;2022-12-07T01:37:35;100646.56;;;-5.74;80.04
51315;BME280;65787;59.922;10.742;2022-12-07T01:40:01;100649.97;;;-5.88;80.14
51315;BME280;65787;59.922;10.742;2022-12-07T01:42:27;100641.34;;;-5.90;81.54
51315;BME280;65787;59.922;10.742;2022-12-07T01:47:37;100630.63;;;-5.86;81.25
51315;BME280;65787;59.922;10.742;2022-12-07T01:50:02;100632.41;;;-5.86;80.86
51315;BME280;65787;59.922;10.742;2022-12-07T01:52:28;100641.81;;;-5.98;81.12
51315;BME280;65787;59.922;10.742;2022-12-07T01:54:59;100635.03;;;-6.02;81.78
51315;BME280;65787;59.922;10.742;2022-12-07T01:57:25;100638.00;;;-6.08;81.31
51315;BME280;65787;59.922;10.742;2022-12-07T01:59:51;100635.63;;;-6.13;81.28
51315;BME280;65787;59.922;10.742;2022-12-07T02:02:18;100637.81;;;-6.21;81.62
51315;BME280;65787;59.922;10.742;2022-12-07T02:04:44;100635.25;;;-6.23;81.08
51315;BME280;65787;59.922;10.742;2022-12-07T02:07:10;100627.13;;;-6.16;81.27
51315;BME280;65787;59.922;10.742;2022-12-07T02:09:35;100634.09;;;-6.17;80.43
51315;BME280;65787;59.922;10.742;2022-12-07T02:12:00;100628.19;;;-6.20;79.83
51315;BME280;65787;59.922;10.742;2022-12-07T02:14:26;100622.72;;;-6.16;79.80
51315;BME280;65787;59.922;10.742;2022-12-07T02:16:54;100625.34;;;-6.16;78.48
51315;BME280;65787;59.922;10.742;2022-12-07T02:27:20;100615.03;;;-6.68;78.82
51315;BME280;65787;59.922;10.742;2022-12-07T02:32:27;100606.63;;;-6.91;80.10
51315;BME280;65787;59.922;10.742;2022-12-07T02:35:03;100610.28;;;-6.95;80.98
51315;BME280;65787;59.922;10.742;2022-12-07T02:42:37;100614.34;;;-6.89;80.39
51315;BME280;65787;59.922;10.742;2022-12-07T02:45:05;100603.41;;;-6.96;79.81
51315;BME280;65787;59.922;10.742;2022-12-07T02:47:32;100603.00;;;-7.06;79.47
51315;BME280;65787;59.922;10.742;2022-12-07T02:49:58;100608.53;;;-7.12;79.39
51315;BME280;65787;59.922;10.742;2022-12-07T02:52:24;100605.25;;;-6.98;79.99
51315;BME280;65787;59.922;10.742;2022-12-07T02:54:49;100608.00;;;-7.01;79.53
51315;BME280;65787;59.922;10.742;2022-12-07T02:57:19;100604.69;;;-7.05;81.13
51315;BME280;65787;59.922;10.742;2022-12-07T03:00:07;100598.78;;;-7.08;81.56
51315;BME280;65787;59.922;10.742;2022-12-07T03:13:12;100601.78;;;-7.33;82.38
51315;BME280;65787;59.922;10.742;2022-12-07T03:18:10;100603.38;;;-7.48;82.53
51315;BME280;65787;59.922;10.742;2022-12-07T03:20:37;100593.31;;;-7.56;82.35
51315;BME280;65787;59.922;10.742;2022-12-07T03:23:07;100585.59;;;-7.57;82.13
51315;BME280;65787;59.922;10.742;2022-12-07T03:25:35;100592.41;;;-7.55;82.89
51315;BME280;65787;59.922;10.742;2022-12-07T03:28:05;100592.53;;;-7.58;82.64
51315;BME280;65787;59.922;10.742;2022-12-07T03:30:50;100592.78;;;-7.63;83.00
51315;BME280;65787;59.922;10.742;2022-12-07T03:33:25;100581.78;;;-7.69;82.95
51315;BME280;65787;59.922;10.742;2022-12-07T03:35:57;100579.25;;;-7.71;83.24
51315;BME280;65787;59.922;10.742;2022-12-07T03:39:08;100584.63;;;-7.74;83.33
51315;BME280;65787;59.922;10.742;2022-12-07T03:41:22;100577.59;;;-7.72;83.04
51315;BME280;65787;59.922;10.742;2022-12-07T03:43:49;100577.13;;;-7.63;82.50
51315;BME280;65787;59.922;10.742;2022-12-07T03:48:46;100580.13;;;-7.70;82.99
51315;BME280;65787;59.922;10.742;2022-12-07T03:51:20;100579.41;;;-7.74;82.63
51315;BME280;65787;59.922;10.742;2022-12-07T03:53:51;100584.00;;;-7.79;82.98
51315;BME280;65787;59.922;10.742;2022-12-07T03:56:19;100579.84;;;-7.83;83.48
51315;BME280;65787;59.922;10.742;2022-12-07T03:58:45;100585.97;;;-7.84;84.05
51315;BME280;65787;59.922;10.742;2022-12-07T04:01:11;100580.75;;;-7.84;83.75
51315;BME280;65787;59.922;10.742;2022-12-07T04:03:36;100578.53;;;-7.92;83.15
51315;BME280;65787;59.922;10.742;2022-12-07T04:06:04;100571.00;;;-7.98;82.69
51315;BME280;65787;59.922;10.742;2022-12-07T04:08:29;100580.81;;;-8.03;83.15
51315;BME280;65787;59.922;10.742;2022-12-07T04:10:55;100583.09;;;-7.97;82.91
51315;BME280;65787;59.922;10.742;2022-12-07T04:13:20;100575.16;;;-7.94;83.53
51315;BME280;65787;59.922;10.742;2022-12-07T04:15:45;100576.06;;;-7.95;83.20
51315;BME280;65787;59.922;10.742;2022-12-07T04:18:10;100570.16;;;-7.99;83.32
51315;BME280;65787;59.922;10.742;2022-12-07T04:20:36;100565.63;;;-7.95;83.32
51315;BME280;65787;59.922;10.742;2022-12-07T04:23:02;100559.44;;;-7.92;82.86
51315;BME280;65787;59.922;10.742;2022-12-07T04:25:28;100551.63;;;-7.92;83.02
51315;BME280;65787;59.922;10.742;2022-12-07T04:27:53;100547.81;;;-7.85;82.36
51315;BME280;65787;59.922;10.742;2022-12-07T04:30:19;100546.66;;;-7.80;81.90
51315;BME280;65787;59.922;10.742;2022-12-07T04:32:44;100551.06;;;-7.63;81.58
51315;BME280;65787;59.922;10.742;2022-12-07T04:35:09;100553.97;;;-7.51;80.60
51315;BME280;65787;59.922;10.742;2022-12-07T04:37:34;100548.44;;;-7.45;79.71
51315;BME280;65787;59.922;10.742;2022-12-07T04:40:00;100553.53;;;-7.42;79.51
51315;BME280;65787;59.922;10.742;2022-12-07T04:42:25;100556.28;;;-7.45;79.19
51315;BME280;65787;59.922;10.742;2022-12-07T04:44:50;100544.63;;;-7.55;79.14
51315;BME280;65787;59.922;10.742;2022-12-07T04:47:16;100541.59;;;-7.65;79.48
51315;BME280;65787;59.922;10.742;2022-12-07T04:49:43;100544.47;;;-7.70;79.33
51315;BME280;65787;59.922;10.742;2022-12-07T04:52:08;100540.31;;;-7.74;79.74
51315;BME280;65787;59.922;10.742;2022-12-07T04:54:34;100535.94;;;-7.73;79.68
51315;BME280;65787;59.922;10.742;2022-12-07T04:56:59;100539.44;;;-7.74;79.41
51315;BME280;65787;59.922;10.742;2022-12-07T04:59:25;100539.75;;;-7.81;79.35
51315;BME280;65787;59.922;10.742;2022-12-07T05:01:50;100530.72;;;-7.91;79.21
51315;BME280;65787;59.922;10.742;2022-12-07T05:04:15;100531.06;;;-7.99;79.80
51315;BME280;65787;59.922;10.742;2022-12-07T05:06:42;100529.44;;;-8.01;80.05
51315;BME280;65787;59.922;10.742;2022-12-07T05:09:08;100534.09;;;-8.08;80.29
51315;BME280;65787;59.922;10.742;2022-12-07T05:11:33;100534.09;;;-8.08;80.27
51315;BME280;65787;59.922;10.742;2022-12-07T05:14:09;100528.06;;;-8.08;80.22
51315;BME280;65787;59.922;10.742;2022-12-07T05:16:34;100540.38;;;-8.12;80.33
51315;BME280;65787;59.922;10.742;2022-12-07T05:19:00;100532.63;;;-8.13;80.31
51315;BME280;65787;59.922;10.742;2022-12-07T05:21:25;100531.97;;;-8.17;80.06
51315;BME280;65787;59.922;10.742;2022-12-07T05:23:51;100528.28;;;-8.13;80.25
51315;BME280;65787;59.922;10.742;2022-12-07T05:26:16;100536.31;;;-8.18;79.87
51315;BME280;65787;59.922;10.742;2022-12-07T05:28:42;100536.31;;;-8.18;80.29
51315;BME280;65787;59.922;10.742;2022-12-07T05:31:07;100536.59;;;-8.24;80.14
51315;BME280;65787;59.922;10.742;2022-12-07T05:33:34;100532.53;;;-8.29;80.46
51315;BME280;65787;59.922;10.742;2022-12-07T05:35:59;100527.44;;;-8.32;81.20
51315;BME280;65787;59.922;10.742;2022-12-07T05:38:31;100529.28;;;-8.34;81.69
51315;BME280;65787;59.922;10.742;2022-12-07T05:40:59;100527.75;;;-8.39;81.78
51315;BME280;65787;59.922;10.742;2022-12-07T05:43:26;100535.63;;;-8.40;81.71
51315;BME280;65787;59.922;10.742;2022-12-07T05:45:51;100528.19;;;-8.48;81.90
51315;BME280;65787;59.922;10.742;2022-12-07T05:48:16;100534.19;;;-8.46;82.33
51315;BME280;65787;59.922;10.742;2022-12-07T05:50:42;100532.47;;;-8.47;82.07
51315;BME280;65787;59.922;10.742;2022-12-07T05:53:07;100529.19;;;-8.50;82.54
51315;BME280;65787;59.922;10.742;2022-12-07T05:55:32;100529.53;;;-8.58;82.03
51315;BME280;65787;59.922;10.742;2022-12-07T05:57:57;100535.78;;;-8.62;82.54
51315;BME280;65787;59.922;10.742;2022-12-07T06:00:41;100535.94;;;-8.65;82.67
51315;BME280;65787;59.922;10.742;2022-12-07T06:03:06;100545.66;;;-8.69;82.78
51315;BME280;65787;59.922;10.742;2022-12-07T06:05:32;100547.47;;;-8.71;82.65
51315;BME280;65787;59.922;10.742;2022-12-07T06:07:57;100550.16;;;-8.72;83.10
51315;BME280;65787;59.922;10.742;2022-12-07T06:10:22;100547.25;;;-8.66;83.04
51315;BME280;65787;59.922;10.742;2022-12-07T06:12:47;100535.78;;;-8.62;83.17
51315;BME280;65787;59.922;10.742;2022-12-07T06:15:12;100542.88;;;-8.66;82.24
51315;BME280;65787;59.922;10.742;2022-12-07T06:17:38;100533.13;;;-8.61;82.79
51315;BME280;65787;59.922;10.742;2022-12-07T06:20:04;100535.66;;;-8.59;82.29
51315;BME280;65787;59.922;10.742;2022-12-07T06:22:29;100530.50;;;-8.61;82.18
51315;BME280;65787;59.922;10.742;2022-12-07T06:24:54;100529.53;;;-8.58;81.70
51315;BME280;65787;59.922;10.742;2022-12-07T06:27:20;100535.44;;;-8.54;81.70
51315;BME280;65787;59.922;10.742;2022-12-07T06:29:45;100531.28;;;-8.59;81.96
51315;BME280;65787;59.922;10.742;2022-12-07T06:32:10;100520.09;;;-8.61;81.46
51315;BME280;65787;59.922;10.742;2022-12-07T06:34:36;100528.75;;;-8.60;81.43
51315;BME280;65787;59.922;10.742;2022-12-07T06:37:01;100520.03;;;-8.59;81.78
51315;BME280;65787;59.922;10.742;2022-12-07T06:39:27;100525.38;;;-8.62;81.00
51315;BME280;65787;59.922;10.742;2022-12-07T06:41:53;100532.81;;;-8.73;80.92
51315;BME280;65787;59.922;10.742;2022-12-07T06:44:19;100535.38;;;-8.72;81.67
51315;BME280;65787;59.922;10.742;2022-12-07T06:46:44;100540.75;;;-8.77;81.59
51315;BME280;65787;59.922;10.742;2022-12-07T06:49:10;100532.41;;;-8.83;81.66
51315;BME280;65787;59.922;10.742;2022-12-07T06:51:35;100529.22;;;-8.90;81.95
51315;BME280;65787;59.922;10.742;2022-12-07T06:54:02;100533.53;;;-8.89;82.18
51315;BME280;65787;59.922;10.742;2022-12-07T06:56:27;100533.59;;;-8.90;81.64
51315;BME280;65787;59.922;10.742;2022-12-07T06:58:53;100530.41;;;-8.97;81.92
51315;BME280;65787;59.922;10.742;2022-12-07T07:01:19;100524.63;;;-9.04;81.93
51315;BME280;65787;59.922;10.742;2022-12-07T07:03:44;100525.59;;;-9.06;82.69
51315;BME280;65787;59.922;10.742;2022-12-07T07:06:10;100516.06;;;-9.06;82.89
51315;BME280;65787;59.922;10.742;2022-12-07T07:08:38;100526.47;;;-9.06;82.82
51315;BME280;65787;59.922;10.742;2022-12-07T07:11:04;100529.13;;;-9.07;82.72
51315;BME280;65787;59.922;10.742;2022-12-07T07:13:29;100535.22;;;-9.08;82.59
51315;BME280;65787;59.922;10.742;2022-12-07T07:15:54;100536.16;;;-9.09;82.19
51315;BME280;65787;59.922;10.742;2022-12-07T07:18:20;100536.88;;;-9.06;82.29
51315;BME280;65787;59.922;10.742;2022-12-07T07:20:46;100531.78;;;-9.09;82.08
51315;BME280;65787;59.922;10.742;2022-12-07T07:23:11;100542.41;;;-9.13;82.53
51315;BME280;65787;59.922;10.742;2022-12-07T07:25:36;100530.94;;;-9.09;82.95
51315;BME280;65787;59.922;10.742;2022-12-07T07:28:02;100527.69;;;-9.15;82.79
51315;BME280;65787;59.922;10.742;2022-12-07T07:30:30;100533.09;;;-9.19;82.77
51315;BME280;65787;59.922;10.742;2022-12-07T07:33:00;100528.88;;;-9.22;83.01
51315;BME280;65787;59.922;10.742;2022-12-07T07:35:25;100536.00;;;-9.27;83.02
51315;BME280;65787;59.922;10.742;2022-12-07T07:37:51;100543.09;;;-9.30;82.95
51315;BME280;65787;59.922;10.742;2022-12-07T07:40:16;100539.81;;;-9.34;83.23
51315;BME280;65787;59.922;10.742;2022-12-07T07:42:42;100544.81;;;-9.29;83.82
51315;BME280;65787;59.922;10.742;2022-12-07T07:45:07;100540.88;;;-8.99;84.11
51315;BME280;65787;59.922;10.742;2022-12-07T07:47:33;100548.06;;;-8.85;83.31
51315;BME280;65787;59.922;10.742;2022-12-07T07:49:58;100536.56;;;-8.60;82.38
51315;BME280;65787;59.922;10.742;2022-12-07T07:52:23;100534.66;;;-8.57;81.21
51315;BME280;65787;59.922;10.742;2022-12-07T07:54:48;100532.47;;;-8.66;80.90
51315;BME280;65787;59.922;10.742;2022-12-07T07:57:14;100529.66;;;-8.80;80.49
51315;BME280;65787;59.922;10.742;2022-12-07T07:59:40;100529.38;;;-8.93;81.07
51315;BME280;65787;59.922;10.742;2022-12-07T08:02:15;100528.44;;;-8.92;82.17
51315;BME280;65787;59.922;10.742;2022-12-07T08:04:41;100521.72;;;-8.77;82.07
51315;BME280;65787;59.922;10.742;2022-12-07T08:07:06;100515.38;;;-8.71;81.52
51315;BME280;65787;59.922;10.742;2022-12-07T08:09:31;100516.50;;;-8.58;81.63
51315;BME280;65787;59.922;10.742;2022-12-07T08:11:57;100514.13;;;-8.44;80.96
51315;BME280;65787;59.922;10.742;2022-12-07T08:14:22;100514.94;;;-8.43;80.55
51315;BME280;65787;59.922;10.742;2022-12-07T08:16:48;100518.06;;;-8.54;80.63
51315;BME280;65787;59.922;10.742;2022-12-07T08:19:13;100513.13;;;-8.60;80.86
51315;BME280;65787;59.922;10.742;2022-12-07T08:21:38;100526.78;;;-8.74;80.96
51315;BME280;65787;59.922;10.742;2022-12-07T08:24:04;100522.13;;;-8.86;81.16
51315;BME280;65787;59.922;10.742;2022-12-07T08:26:29;100521.63;;;-8.94;81.68
51315;BME280;65787;59.922;10.742;2022-12-07T08:28:56;100517.19;;;-8.92;82.55
51315;BME280;65787;59.922;10.742;2022-12-07T08:31:22;100515.72;;;-8.98;81.76
51315;BME280;65787;59.922;10.742;2022-12-07T08:33:47;100513.47;;;-8.87;82.84
51315;BME280;65787;59.922;10.742;2022-12-07T08:36:13;100516.06;;;-8.87;81.77
51315;BME280;65787;59.922;10.742;2022-12-07T08:38:39;100522.47;;;-8.94;82.32
51315;BME280;65787;59.922;10.742;2022-12-07T08:41:04;100529.63;;;-8.99;82.62
51315;BME280;65787;59.922;10.742;2022-12-07T08:43:30;100523.47;;;-8.97;83.16
51315;BME280;65787;59.922;10.742;2022-12-07T08:48:50;100513.34;;;-8.65;81.79
51315;BME280;65787;59.922;10.742;2022-12-07T08:51:17;100513.41;;;-8.66;81.60
51315;BME280;65787;59.922;10.742;2022-12-07T08:53:43;100512.06;;;-8.75;81.43
51315;BME280;65787;59.922;10.742;2022-12-07T08:56:09;100506.09;;;-8.77;81.79
51315;BME280;65787;59.922;10.742;2022-12-07T08:58:37;100501.72;;;-8.77;81.74
51315;BME280;65787;59.922;10.742;2022-12-07T09:01:04;100504.63;;;-8.83;81.72
51315;BME280;65787;59.922;10.742;2022-12-07T09:03:29;100507.09;;;-8.80;82.44
51315;BME280;65787;59.922;10.742;2022-12-07T09:05:55;100509.47;;;-8.75;82.68
51315;BME280;65787;59.922;10.742;2022-12-07T09:08:21;100505.84;;;-8.71;82.48
51315;BME280;65787;59.922;10.742;2022-12-07T09:10:47;100505.63;;;-8.66;81.84
51315;BME280;65787;59.922;10.742;2022-12-07T09:13:12;100508.09;;;-8.63;81.80
51315;BME280;65787;59.922;10.742;2022-12-07T09:15:38;100497.88;;;-8.68;81.63
51315;BME280;65787;59.922;10.742;2022-12-07T09:18:03;100499.34;;;-8.62;82.26
51315;BME280;65787;59.922;10.742;2022-12-07T09:20:28;100503.41;;;-8.57;82.41
51315;BME280;65787;59.922;10.742;2022-12-07T09:22:54;100503.50;;;-8.58;82.16
51315;BME280;65787;59.922;10.742;2022-12-07T09:25:19;100498.28;;;-8.58;82.44
51315;BME280;65787;59.922;10.742;2022-12-07T09:27:44;100499.34;;;-8.62;81.80
51315;BME280;65787;59.922;10.742;2022-12-07T09:30:10;100496.66;;;-8.61;82.00
51315;BME280;65787;59.922;10.742;2022-12-07T09:32:35;100494.00;;;-8.59;82.14
51315;BME280;65787;59.922;10.742;2022-12-07T09:35:00;100496.53;;;-8.58;82.39
51315;BME280;65787;59.922;10.742;2022-12-07T09:37:25;100490.16;;;-8.50;81.95
51315;BME280;65787;59.922;10.742;2022-12-07T09:39:51;100493.34;;;-8.45;82.55
51315;BME280;65787;59.922;10.742;2022-12-07T09:42:36;100495.50;;;-8.36;82.62
51315;BME280;65787;59.922;10.742;2022-12-07T09:45:04;100486.97;;;-8.21;82.16
51315;BME280;65787;59.922;10.742;2022-12-07T09:47:30;100487.56;;;-8.15;81.43
51315;BME280;65787;59.922;10.742;2022-12-07T09:49:58;100484.69;;;-8.09;80.72
51315;BME280;65787;59.922;10.742;2022-12-07T09:52:26;100481.34;;;-7.94;80.40
51315;BME280;65787;59.922;10.742;2022-12-07T09:54:53;100478.22;;;-7.83;79.79
51315;BME280;65787;59.922;10.742;2022-12-07T09:57:20;100462.25;;;-7.77;80.08
51315;BME280;65787;59.922;10.742;2022-12-07T09:59:49;100462.63;;;-7.67;79.57
51315;BME280;65787;59.922;10.742;2022-12-07T10:02:25;100461.47;;;-7.62;79.03
51315;BME280;65787;59.922;10.742;2022-12-07T10:04:52;100459.56;;;-7.58;78.91
51315;BME280;65787;59.922;10.742;2022-12-07T10:07:20;100460.59;;;-7.45;78.27
51315;BME280;65787;59.922;10.742;2022-12-07T10:09:45;100450.25;;;-7.29;78.02
51315;BME280;65787;59.922;10.742;2022-12-07T10:12:11;100450.31;;;-7.30;77.78
51315;BME280;65787;59.922;10.742;2022-12-07T10:14:38;100444.25;;;-7.31;78.05
51315;BME280;65787;59.922;10.742;2022-12-07T10:17:25;100443.84;;;-7.23;77.47
51315;BME280;65787;59.922;10.742;2022-12-07T10:19:48;100439.00;;;-7.13;76.86
51315;BME280;65787;59.922;10.742;2022-12-07T10:22:15;100431.34;;;-7.01;76.09
51315;BME280;65787;59.922;10.742;2022-12-07T10:24:41;100440.31;;;-6.89;76.19
51315;BME280;65787;59.922;10.742;2022-12-07T10:27:18;100433.91;;;-6.83;75.89
51315;BME280;65787;59.922;10.742;2022-12-07T10:29:47;100432.75;;;-6.77;76.39
51315;BME280;65787;59.922;10.742;2022-12-07T10:34:41;100421.84;;;-6.54;74.81
51315;BME280;65787;59.922;10.742;2022-12-07T10:39:46;100421.50;;;-6.32;76.48
51315;BME280;65787;59.922;10.742;2022-12-07T10:42:16;100432.84;;;-6.17;76.05
51315;BME280;65787;59.922;10.742;2022-12-07T10:44:42;100427.97;;;-6.07;75.89
51315;BME280;65787;59.922;10.742;2022-12-07T10:49:43;100425.69;;;-5.54;75.52
51315;BME280;65787;59.922;10.742;2022-12-07T10:52:34;100420.69;;;-5.14;74.01
51315;BME280;65787;59.922;10.742;2022-12-07T10:57:36;100399.16;;;-4.49;71.55
51315;BME280;65787;59.922;10.742;2022-12-07T11:00:25;100391.16;;;-4.20;69.68
51315;BME280;65787;59.922;10.742;2022-12-07T11:03:00;100391.50;;;-3.99;70.19
51315;BME280;65787;59.922;10.742;2022-12-07T11:05:34;100396.50;;;-3.82;69.85
51315;BME280;65787;59.922;10.742;2022-12-07T11:08:05;100397.97;;;-3.65;69.19
51315;BME280;65787;59.922;10.742;2022-12-07T11:10:55;100391.78;;;-3.51;68.23
51315;BME280;65787;59.922;10.742;2022-12-07T11:13:23;100385.16;;;-3.31;70.23
51315;BME280;65787;59.922;10.742;2022-12-07T11:16:39;100387.03;;;-3.07;67.50
51315;BME280;65787;59.922;10.742;2022-12-07T11:24:18;100347.91;;;6.79;44.22
51315;BME280;65787;59.922;10.742;2022-12-07T11:29:20;100340.78;;;8.95;37.49
51315;BME280;65787;59.922;10.742;2022-12-07T11:37:01;100337.47;;;7.87;36.70
51315;BME280;65787;59.922;10.742;2022-12-07T11:39:33;100346.59;;;4.06;45.62
51315;BME280;65787;59.922;10.742;2022-12-07T11:49:47;100336.00;;;-0.62;51.30
51315;BME280;65787;59.922;10.742;2022-12-07T11:52:27;100344.75;;;-1.27;58.13
51315;BME280;65787;59.922;10.742;2022-12-07T11:54:55;100335.75;;;-1.70;59.68
51315;BME280;65787;59.922;10.742;2022-12-07T11:57:35;100340.25;;;-1.95;61.12
51315;BME280;65787;59.922;10.742;2022-12-07T12:00:05;100339.34;;;-2.18;63.86
51315;BME280;65787;59.922;10.742;2022-12-07T12:05:14;100334.19;;;-2.55;62.60
51315;BME280;65787;59.922;10.742;2022-12-07T12:07:40;100326.81;;;-2.74;59.58
51315;BME280;65787;59.922;10.742;2022-12-07T12:10:14;100333.91;;;-2.87;63.95
51315;BME280;65787;59.922;10.742;2022-12-07T12:12:54;100321.78;;;-3.01;64.76
51315;BME280;65787;59.922;10.742;2022-12-07T12:15:45;100331.84;;;-3.07;64.34
51315;BME280;65787;59.922;10.742;2022-12-07T12:18:17;100323.47;;;-3.13;66.78
51315;BME280;65787;59.922;10.742;2022-12-07T12:20:49;100329.47;;;-3.23;64.37
51315;BME280;65787;59.922;10.742;2022-12-07T12:23:22;100322.13;;;-3.31;66.50
51315;BME280;65787;59.922;10.742;2022-12-07T12:25:54;100324.69;;;-3.42;65.90
51315;BME280;65787;59.922;10.742;2022-12-07T12:28:22;100319.25;;;-3.52;62.54
51315;BME280;65787;59.922;10.742;2022-12-07T12:31:04;100314.28;;;-3.57;63.33
51315;BME280;65787;59.922;10.742;2022-12-07T12:33:30;100315.47;;;-3.61;62.66
51315;BME280;65787;59.922;10.742;2022-12-07T12:57:17;100299.72;;;-3.74;63.25
51315;BME280;65787;59.922;10.742;2022-12-07T13:02:22;100293.44;;;-3.71;63.35
51315;BME280;65787;59.922;10.742;2022-12-07T13:10:04;100285.22;;;-3.66;65.29
51315;BME280;65787;59.922;10.742;2022-12-07T13:12:30;100274.75;;;-3.66;67.20
51315;BME280;65787;59.922;10.742;2022-12-07T13:14:57;100277.25;;;-3.65;68.71
51315;BME280;65787;59.922;10.742;2022-12-07T13:20:03;100278.31;;;-3.67;67.89
51315;BME280;65787;59.922;10.742;2022-12-07T13:25:08;100274.63;;;-3.65;68.23
51315;BME280;65787;59.922;10.742;2022-12-07T13:27:37;100264.88;;;-3.63;69.59
51315;BME280;65787;59.922;10.742;2022-12-07T13:30:07;100258.78;;;-3.63;70.07
51315;BME280;65787;59.922;10.742;2022-12-07T13:32:34;100261.19;;;-3.60;69.73
51315;BME280;65787;59.922;10.742;2022-12-07T13:34:59;100255.00;;;-3.59;69.39
51315;BME280;65787;59.922;10.742;2022-12-07T13:37:28;100252.38;;;-3.59;68.62
51315;BME280;65787;59.922;10.742;2022-12-07T13:39:59;100252.38;;;-3.59;69.35
51315;BME280;65787;59.922;10.742;2022-12-07T13:42:26;100253.94;;;-3.57;70.09
51315;BME280;65787;59.922;10.742;2022-12-07T13:44:52;100253.09;;;-3.57;70.57
51315;BME280;65787;59.922;10.742;2022-12-07T13:47:36;100252.16;;;-3.56;70.48
51315;BME280;65787;59.922;10.742;2022-12-07T13:52:50;100249.53;;;-3.56;71.75
51315;BME280;65787;59.922;10.742;2022-12-07T13:55:19;100249.44;;;-3.55;72.72
51315;BME280;65787;59.922;10.742;2022-12-07T13:57:46;100249.44;;;-3.55;72.32
51315;BME280;65787;59.922;10.742;2022-12-07T14:00:22;100243.56;;;-3.58;71.23
51315;BME280;65787;59.922;10.742;2022-12-07T14:05:24;100239.16;;;-3.58;71.96
51315;BME280;65787;59.922;10.742;2022-12-07T14:07:57;100238.31;;;-3.58;72.93
51315;BME280;65787;59.922;10.742;2022-12-07T14:12:49;100234.00;;;-3.59;73.06
51315;BME280;65787;59.922;10.742;2022-12-07T14:15:19;100230.53;;;-3.60;73.37
51315;BME280;65787;59.922;10.742;2022-12-07T14:17:52;100221.72;;;-3.59;74.19
51315;BME280;65787;59.922;10.742;2022-12-07T14:20:31;100214.78;;;-3.60;72.56
51315;BME280;65787;59.922;10.742;2022-12-07T14:22:57;100213.34;;;-3.64;73.55
51315;BME280;65787;59.922;10.742;2022-12-07T14:25:23;100209.75;;;-3.63;74.79
51315;BME280;65787;59.922;10.742;2022-12-07T14:30:15;100214.00;;;-3.73;75.50
51315;BME280;65787;59.922;10.742;2022-12-07T14:32:41;100210.75;;;-3.77;75.47
51315;BME280;65787;59.922;10.742;2022-12-07T14:35:09;100215.25;;;-3.79;76.03
51315;BME280;65787;59.922;10.742;2022-12-07T14:37:38;100209.25;;;-3.81;75.16